sensor_id;sensor_type;location;lat;lon;timestamp;P1;durP1;ratioP1;P2;durP2;ratioP2
10244;SDS011;5167;52.164;10.530;2023-04-25T00:01:03;9.82;;;3.40;;
10244;SDS011;5167;52.164;10.530;2023-04-25T00:03:30;12.27;;;3.78;;
10244;SDS011;5167;52.164;10.530;2023-04-25T00:05:56;8.63;;;4.05;;
10244;SDS011;5167;52.164;10.530;2023-04-25T00:08:23;12.00;;;4.15;;
10244;SDS011;5167;52.164;10.530;2023-04-25T00:10:49;12.02;;;3.60;;
10244;SDS011;5167;52.164;10.530;2023-04-25T00:13:15;13.63;;;3.60;;
10244;SDS011;5167;52.164;10.530;2023-04-25T00:15:42;8.85;;;4.05;;
10244;SDS011;5167;52.164;10.530;2023-04-25T00:18:07;5.70;;;4.10;;
10244;SDS011;5167;52.164;10.530;2023-04-25T00:20:33;6.25;;;3.85;;
10244;SDS011;5167;52.164;10.530;2023-04-25T00:23:00;12.70;;;3.60;;
10244;SDS011;5167;52.164;10.530;2023-04-25T00:25:26;12.02;;;3.95;;
10244;SDS011;5167;52.164;10.530;2023-04-25T00:27:51;9.13;;;3.75;;
10244;SDS011;5167;52.164;10.530;2023-04-25T00:30:17;9.83;;;4.00;;
10244;SDS011;5167;52.164;10.530;2023-04-25T00:32:42;11.85;;;3.38;;
10244;SDS011;5167;52.164;10.530;2023-04-25T00:35:08;10.17;;;3.67;;
10244;SDS011;5167;52.164;10.530;2023-04-25T00:37:34;10.07;;;3.80;;
10244;SDS011;5167;52.164;10.530;2023-04-25T00:40:00;9.13;;;3.27;;
10244;SDS011;5167;52.164;10.530;2023-04-25T00:42:25;12.02;;;4.10;;
10244;SDS011;5167;52.164;10.530;2023-04-25T00:44:52;7.63;;;4.00;;
10244;SDS011;5167;52.164;10.530;2023-04-25T00:47:18;11.55;;;3.67;;
10244;SDS011;5167;52.164;10.530;2023-04-25T00:49:43;7.13;;;3.67;;
10244;SDS011;5167;52.164;10.530;2023-04-25T00:52:09;7.67;;;3.50;;
10244;SDS011;5167;52.164;10.530;2023-04-25T00:54:35;6.17;;;3.70;;
10244;SDS011;5167;52.164;10.530;2023-04-25T00:57:01;9.33;;;3.87;;
10244;SDS011;5167;52.164;10.530;2023-04-25T00:59:27;8.77;;;3.50;;
10244;SDS011;5167;52.164;10.530;2023-04-25T01:01:54;11.57;;;4.23;;
10244;SDS011;5167;52.164;10.530;2023-04-25T01:04:20;12.13;;;4.30;;
10244;SDS011;5167;52.164;10.530;2023-04-25T01:06:46;14.68;;;4.60;;
10244;SDS011;5167;52.164;10.530;2023-04-25T01:09:11;5.90;;;4.90;;
10244;SDS011;5167;52.164;10.530;2023-04-25T01:11:38;9.23;;;4.07;;
10244;SDS011;5167;52.164;10.530;2023-04-25T01:14:05;9.10;;;4.00;;
10244;SDS011;5167;52.164;10.530;2023-04-25T01:16:31;8.18;;;3.38;;
10244;SDS011;5167;52.164;10.530;2023-04-25T01:18:56;6.20;;;3.30;;
10244;SDS011;5167;52.164;10.530;2023-04-25T01:21:22;5.82;;;3.25;;
10244;SDS011;5167;52.164;10.530;2023-04-25T01:23:48;9.63;;;3.70;;
10244;SDS011;5167;52.164;10.530;2023-04-25T01:26:13;6.50;;;4.13;;
10244;SDS011;5167;52.164;10.530;2023-04-25T01:28:39;8.73;;;4.22;;
10244;SDS011;5167;52.164;10.530;2023-04-25T01:31:08;9.77;;;4.10;;
10244;SDS011;5167;52.164;10.530;2023-04-25T01:33:34;10.43;;;4.17;;
10244;SDS011;5167;52.164;10.530;2023-04-25T01:36:00;8.80;;;3.83;;
10244;SDS011;5167;52.164;10.530;2023-04-25T01:38:25;10.70;;;4.27;;
10244;SDS011;5167;52.164;10.530;2023-04-25T01:40:51;10.43;;;4.70;;
10244;SDS011;5167;52.164;10.530;2023-04-25T01:43:17;8.90;;;4.13;;
10244;SDS011;5167;52.164;10.530;2023-04-25T01:45:43;12.23;;;4.77;;
10244;SDS011;5167;52.164;10.530;2023-04-25T01:48:09;7.63;;;3.83;;
10244;SDS011;5167;52.164;10.530;2023-04-25T01:50:39;10.30;;;4.70;;
10244;SDS011;5167;52.164;10.530;2023-04-25T01:53:05;13.45;;;4.10;;
10244;SDS011;5167;52.164;10.530;2023-04-25T01:55:31;7.20;;;4.10;;
10244;SDS011;5167;52.164;10.530;2023-04-25T01:57:56;12.03;;;4.50;;
10244;SDS011;5167;52.164;10.530;2023-04-25T02:00:22;9.57;;;4.90;;
10244;SDS011;5167;52.164;10.530;2023-04-25T02:02:48;10.57;;;4.83;;
10244;SDS011;5167;52.164;10.530;2023-04-25T02:05:15;9.73;;;4.60;;
10244;SDS011;5167;52.164;10.530;2023-04-25T02:07:41;10.93;;;4.97;;
10244;SDS011;5167;52.164;10.530;2023-04-25T02:10:07;9.30;;;5.10;;
10244;SDS011;5167;52.164;10.530;2023-04-25T02:12:33;12.13;;;4.43;;
10244;SDS011;5167;52.164;10.530;2023-04-25T02:15:00;12.83;;;4.67;;
10244;SDS011;5167;52.164;10.530;2023-04-25T02:17:25;9.90;;;4.47;;
10244;SDS011;5167;52.164;10.530;2023-04-25T02:19:51;13.93;;;4.33;;
10244;SDS011;5167;52.164;10.530;2023-04-25T02:22:17;12.67;;;4.43;;
10244;SDS011;5167;52.164;10.530;2023-04-25T02:24:42;17.03;;;4.53;;
10244;SDS011;5167;52.164;10.530;2023-04-25T02:27:08;11.30;;;4.37;;
10244;SDS011;5167;52.164;10.530;2023-04-25T02:29:33;11.53;;;4.63;;
10244;SDS011;5167;52.164;10.530;2023-04-25T02:31:59;13.53;;;4.77;;
10244;SDS011;5167;52.164;10.530;2023-04-25T02:34:25;13.67;;;5.60;;
10244;SDS011;5167;52.164;10.530;2023-04-25T02:36:50;12.17;;;4.87;;
10244;SDS011;5167;52.164;10.530;2023-04-25T02:39:16;14.77;;;4.57;;
10244;SDS011;5167;52.164;10.530;2023-04-25T02:41:42;12.43;;;4.90;;
10244;SDS011;5167;52.164;10.530;2023-04-25T02:44:07;10.10;;;4.33;;
10244;SDS011;5167;52.164;10.530;2023-04-25T02:46:33;7.27;;;4.57;;
10244;SDS011;5167;52.164;10.530;2023-04-25T02:48:58;8.50;;;4.13;;
10244;SDS011;5167;52.164;10.530;2023-04-25T02:51:24;10.03;;;5.63;;
10244;SDS011;5167;52.164;10.530;2023-04-25T02:53:49;7.40;;;4.07;;
10244;SDS011;5167;52.164;10.530;2023-04-25T02:56:15;10.73;;;5.07;;
10244;SDS011;5167;52.164;10.530;2023-04-25T02:58:40;10.23;;;4.80;;
10244;SDS011;5167;52.164;10.530;2023-04-25T03:01:06;9.13;;;4.70;;
10244;SDS011;5167;52.164;10.530;2023-04-25T03:03:31;9.50;;;4.73;;
10244;SDS011;5167;52.164;10.530;2023-04-25T03:05:57;7.17;;;4.67;;
10244;SDS011;5167;52.164;10.530;2023-04-25T03:08:22;9.80;;;5.30;;
10244;SDS011;5167;52.164;10.530;2023-04-25T03:10:48;14.03;;;5.40;;
10244;SDS011;5167;52.164;10.530;2023-04-25T03:13:15;11.97;;;5.87;;
10244;SDS011;5167;52.164;10.530;2023-04-25T03:15:40;11.77;;;5.67;;
10244;SDS011;5167;52.164;10.530;2023-04-25T03:18:06;14.63;;;5.97;;
10244;SDS011;5167;52.164;10.530;2023-04-25T03:20:31;12.63;;;5.43;;
10244;SDS011;5167;52.164;10.530;2023-04-25T03:22:57;10.43;;;5.83;;
10244;SDS011;5167;52.164;10.530;2023-04-25T03:25:22;9.90;;;5.33;;
10244;SDS011;5167;52.164;10.530;2023-04-25T03:27:48;11.40;;;5.67;;
10244;SDS011;5167;52.164;10.530;2023-04-25T03:30:13;9.90;;;5.47;;
10244;SDS011;5167;52.164;10.530;2023-04-25T03:32:39;12.90;;;5.60;;
10244;SDS011;5167;52.164;10.530;2023-04-25T03:35:04;10.17;;;5.00;;
10244;SDS011;5167;52.164;10.530;2023-04-25T03:37:30;15.57;;;5.10;;
10244;SDS011;5167;52.164;10.530;2023-04-25T03:39:56;16.70;;;5.57;;
10244;SDS011;5167;52.164;10.530;2023-04-25T03:42:21;17.10;;;5.77;;
10244;SDS011;5167;52.164;10.530;2023-04-25T03:44:48;10.83;;;5.73;;
10244;SDS011;5167;52.164;10.530;2023-04-25T03:47:14;8.93;;;4.90;;
10244;SDS011;5167;52.164;10.530;2023-04-25T03:49:40;12.20;;;5.13;;
10244;SDS011;5167;52.164;10.530;2023-04-25T03:52:06;10.53;;;4.90;;
10244;SDS011;5167;52.164;10.530;2023-04-25T03:54:32;11.20;;;4.27;;
10244;SDS011;5167;52.164;10.530;2023-04-25T03:56:57;8.87;;;5.00;;
10244;SDS011;5167;52.164;10.530;2023-04-25T03:59:23;11.93;;;6.43;;
10244;SDS011;5167;52.164;10.530;2023-04-25T04:01:49;12.63;;;5.13;;
10244;SDS011;5167;52.164;10.530;2023-04-25T04:04:15;11.47;;;5.10;;
10244;SDS011;5167;52.164;10.530;2023-04-25T04:06:40;9.23;;;5.47;;
10244;SDS011;5167;52.164;10.530;2023-04-25T04:09:07;11.90;;;5.37;;
10244;SDS011;5167;52.164;10.530;2023-04-25T04:11:35;15.60;;;5.40;;
10244;SDS011;5167;52.164;10.530;2023-04-25T04:14:03;14.07;;;5.20;;
10244;SDS011;5167;52.164;10.530;2023-04-25T04:16:31;13.57;;;5.63;;
10244;SDS011;5167;52.164;10.530;2023-04-25T04:18:57;16.20;;;4.80;;
10244;SDS011;5167;52.164;10.530;2023-04-25T04:21:23;13.30;;;4.57;;
10244;SDS011;5167;52.164;10.530;2023-04-25T04:23:48;15.67;;;4.67;;
10244;SDS011;5167;52.164;10.530;2023-04-25T04:26:14;14.97;;;4.70;;
10244;SDS011;5167;52.164;10.530;2023-04-25T04:28:41;14.10;;;4.30;;
10244;SDS011;5167;52.164;10.530;2023-04-25T04:31:08;12.67;;;4.13;;
10244;SDS011;5167;52.164;10.530;2023-04-25T04:33:34;15.37;;;4.70;;
10244;SDS011;5167;52.164;10.530;2023-04-25T04:36:01;15.77;;;4.60;;
10244;SDS011;5167;52.164;10.530;2023-04-25T04:38:27;14.53;;;5.10;;
10244;SDS011;5167;52.164;10.530;2023-04-25T04:40:53;20.87;;;5.40;;
10244;SDS011;5167;52.164;10.530;2023-04-25T04:43:19;10.90;;;4.07;;
10244;SDS011;5167;52.164;10.530;2023-04-25T04:45:45;18.17;;;5.60;;
10244;SDS011;5167;52.164;10.530;2023-04-25T04:48:10;18.23;;;5.00;;
10244;SDS011;5167;52.164;10.530;2023-04-25T04:50:38;16.00;;;4.23;;
10244;SDS011;5167;52.164;10.530;2023-04-25T04:53:05;19.30;;;4.70;;
10244;SDS011;5167;52.164;10.530;2023-04-25T04:55:30;12.37;;;4.87;;
10244;SDS011;5167;52.164;10.530;2023-04-25T04:57:56;15.07;;;4.10;;
10244;SDS011;5167;52.164;10.530;2023-04-25T05:00:21;14.03;;;4.57;;
10244;SDS011;5167;52.164;10.530;2023-04-25T05:02:47;7.50;;;4.10;;
10244;SDS011;5167;52.164;10.530;2023-04-25T05:05:12;11.40;;;5.40;;
10244;SDS011;5167;52.164;10.530;2023-04-25T05:07:38;20.57;;;5.67;;
10244;SDS011;5167;52.164;10.530;2023-04-25T05:10:04;12.27;;;3.93;;
10244;SDS011;5167;52.164;10.530;2023-04-25T05:12:30;22.47;;;5.27;;
10244;SDS011;5167;52.164;10.530;2023-04-25T05:14:55;15.93;;;4.37;;
10244;SDS011;5167;52.164;10.530;2023-04-25T05:17:21;16.03;;;4.60;;
10244;SDS011;5167;52.164;10.530;2023-04-25T05:19:46;18.90;;;4.80;;
10244;SDS011;5167;52.164;10.530;2023-04-25T05:22:12;10.33;;;4.20;;
10244;SDS011;5167;52.164;10.530;2023-04-25T05:24:37;23.00;;;5.30;;
10244;SDS011;5167;52.164;10.530;2023-04-25T05:27:03;13.83;;;4.93;;
10244;SDS011;5167;52.164;10.530;2023-04-25T05:29:28;12.30;;;4.40;;
10244;SDS011;5167;52.164;10.530;2023-04-25T05:31:53;19.13;;;4.20;;
10244;SDS011;5167;52.164;10.530;2023-04-25T05:34:19;22.57;;;5.50;;
10244;SDS011;5167;52.164;10.530;2023-04-25T05:36:45;17.90;;;4.57;;
10244;SDS011;5167;52.164;10.530;2023-04-25T05:39:13;19.40;;;4.20;;
10244;SDS011;5167;52.164;10.530;2023-04-25T05:41:39;15.57;;;6.20;;
10244;SDS011;5167;52.164;10.530;2023-04-25T05:44:05;19.00;;;4.63;;
10244;SDS011;5167;52.164;10.530;2023-04-25T05:46:30;14.43;;;4.13;;
10244;SDS011;5167;52.164;10.530;2023-04-25T05:48:56;21.23;;;4.60;;
10244;SDS011;5167;52.164;10.530;2023-04-25T05:51:21;14.53;;;4.43;;
10244;SDS011;5167;52.164;10.530;2023-04-25T05:53:47;14.57;;;5.23;;
10244;SDS011;5167;52.164;10.530;2023-04-25T05:56:12;15.43;;;4.60;;
10244;SDS011;5167;52.164;10.530;2023-04-25T05:58:38;16.57;;;4.63;;
10244;SDS011;5167;52.164;10.530;2023-04-25T06:01:03;16.40;;;4.13;;
10244;SDS011;5167;52.164;10.530;2023-04-25T06:03:29;16.27;;;3.77;;
10244;SDS011;5167;52.164;10.530;2023-04-25T06:05:55;13.07;;;4.37;;
10244;SDS011;5167;52.164;10.530;2023-04-25T06:08:21;17.77;;;4.73;;
10244;SDS011;5167;52.164;10.530;2023-04-25T06:10:46;18.47;;;5.73;;
10244;SDS011;5167;52.164;10.530;2023-04-25T06:13:12;21.90;;;4.97;;
10244;SDS011;5167;52.164;10.530;2023-04-25T06:15:37;22.03;;;4.10;;
10244;SDS011;5167;52.164;10.530;2023-04-25T06:18:03;11.60;;;3.60;;
10244;SDS011;5167;52.164;10.530;2023-04-25T06:20:28;19.87;;;4.07;;
10244;SDS011;5167;52.164;10.530;2023-04-25T06:22:54;15.50;;;3.37;;
10244;SDS011;5167;52.164;10.530;2023-04-25T06:25:19;31.37;;;7.30;;
10244;SDS011;5167;52.164;10.530;2023-04-25T06:27:45;12.63;;;2.97;;
10244;SDS011;5167;52.164;10.530;2023-04-25T06:30:11;13.77;;;3.87;;
10244;SDS011;5167;52.164;10.530;2023-04-25T06:32:37;17.13;;;5.57;;
10244;SDS011;5167;52.164;10.530;2023-04-25T06:35:03;15.17;;;3.73;;
10244;SDS011;5167;52.164;10.530;2023-04-25T06:37:29;15.50;;;3.60;;
10244;SDS011;5167;52.164;10.530;2023-04-25T06:39:55;11.20;;;3.40;;
10244;SDS011;5167;52.164;10.530;2023-04-25T06:42:20;11.90;;;3.47;;
10244;SDS011;5167;52.164;10.530;2023-04-25T06:44:46;12.70;;;3.20;;
10244;SDS011;5167;52.164;10.530;2023-04-25T06:47:11;19.80;;;4.00;;
10244;SDS011;5167;52.164;10.530;2023-04-25T06:49:37;18.30;;;4.10;;
10244;SDS011;5167;52.164;10.530;2023-04-25T06:52:02;17.73;;;3.77;;
10244;SDS011;5167;52.164;10.530;2023-04-25T06:54:28;13.83;;;3.30;;
10244;SDS011;5167;52.164;10.530;2023-04-25T06:56:54;11.33;;;3.10;;
10244;SDS011;5167;52.164;10.530;2023-04-25T06:59:20;16.65;;;3.22;;
10244;SDS011;5167;52.164;10.530;2023-04-25T07:01:46;13.57;;;4.00;;
10244;SDS011;5167;52.164;10.530;2023-04-25T07:04:11;13.27;;;3.57;;
10244;SDS011;5167;52.164;10.530;2023-04-25T07:06:37;13.83;;;4.60;;
10244;SDS011;5167;52.164;10.530;2023-04-25T07:09:09;7.32;;;3.00;;
10244;SDS011;5167;52.164;10.530;2023-04-25T07:11:35;17.13;;;3.80;;
10244;SDS011;5167;52.164;10.530;2023-04-25T07:14:00;17.83;;;4.80;;
10244;SDS011;5167;52.164;10.530;2023-04-25T07:16:26;16.00;;;3.13;;
10244;SDS011;5167;52.164;10.530;2023-04-25T07:18:51;12.57;;;3.78;;
10244;SDS011;5167;52.164;10.530;2023-04-25T07:21:17;11.07;;;3.40;;
10244;SDS011;5167;52.164;10.530;2023-04-25T07:23:42;14.00;;;3.07;;
10244;SDS011;5167;52.164;10.530;2023-04-25T07:26:08;14.48;;;3.03;;
10244;SDS011;5167;52.164;10.530;2023-04-25T07:28:33;12.10;;;3.40;;
10244;SDS011;5167;52.164;10.530;2023-04-25T07:30:59;13.75;;;3.28;;
10244;SDS011;5167;52.164;10.530;2023-04-25T07:33:24;16.20;;;3.90;;
10244;SDS011;5167;52.164;10.530;2023-04-25T07:35:50;8.37;;;3.17;;
10244;SDS011;5167;52.164;10.530;2023-04-25T07:38:17;17.33;;;3.20;;
10244;SDS011;5167;52.164;10.530;2023-04-25T07:40:42;29.50;;;4.47;;
10244;SDS011;5167;52.164;10.530;2023-04-25T07:43:07;16.37;;;3.17;;
10244;SDS011;5167;52.164;10.530;2023-04-25T07:45:33;8.33;;;3.00;;
10244;SDS011;5167;52.164;10.530;2023-04-25T07:47:59;15.03;;;2.67;;
10244;SDS011;5167;52.164;10.530;2023-04-25T07:50:24;15.18;;;3.22;;
10244;SDS011;5167;52.164;10.530;2023-04-25T07:52:50;7.97;;;2.70;;
10244;SDS011;5167;52.164;10.530;2023-04-25T07:55:15;7.55;;;3.13;;
10244;SDS011;5167;52.164;10.530;2023-04-25T07:57:41;17.20;;;3.60;;
10244;SDS011;5167;52.164;10.530;2023-04-25T08:00:07;16.17;;;3.67;;
10244;SDS011;5167;52.164;10.530;2023-04-25T08:02:34;13.60;;;3.35;;
10244;SDS011;5167;52.164;10.530;2023-04-25T08:05:01;8.13;;;2.90;;
10244;SDS011;5167;52.164;10.530;2023-04-25T08:07:26;9.77;;;3.15;;
10244;SDS011;5167;52.164;10.530;2023-04-25T08:09:52;14.48;;;3.63;;
10244;SDS011;5167;52.164;10.530;2023-04-25T08:12:18;18.08;;;3.88;;
10244;SDS011;5167;52.164;10.530;2023-04-25T08:14:44;10.73;;;2.90;;
10244;SDS011;5167;52.164;10.530;2023-04-25T08:17:09;9.40;;;3.38;;
10244;SDS011;5167;52.164;10.530;2023-04-25T08:19:35;13.15;;;3.40;;
10244;SDS011;5167;52.164;10.530;2023-04-25T08:22:00;9.60;;;3.05;;
10244;SDS011;5167;52.164;10.530;2023-04-25T08:24:26;12.65;;;2.53;;
10244;SDS011;5167;52.164;10.530;2023-04-25T08:26:51;10.98;;;2.35;;
10244;SDS011;5167;52.164;10.530;2023-04-25T08:29:17;13.32;;;2.83;;
10244;SDS011;5167;52.164;10.530;2023-04-25T08:31:43;16.73;;;4.07;;
10244;SDS011;5167;52.164;10.530;2023-04-25T08:34:08;10.23;;;2.47;;
10244;SDS011;5167;52.164;10.530;2023-04-25T08:36:34;10.32;;;3.05;;
10244;SDS011;5167;52.164;10.530;2023-04-25T08:39:00;16.50;;;2.90;;
10244;SDS011;5167;52.164;10.530;2023-04-25T08:41:25;10.32;;;2.67;;
10244;SDS011;5167;52.164;10.530;2023-04-25T08:43:52;11.93;;;2.60;;
10244;SDS011;5167;52.164;10.530;2023-04-25T08:46:18;12.30;;;2.75;;
10244;SDS011;5167;52.164;10.530;2023-04-25T08:48:44;8.45;;;2.22;;
10244;SDS011;5167;52.164;10.530;2023-04-25T08:51:13;10.07;;;2.83;;
10244;SDS011;5167;52.164;10.530;2023-04-25T08:53:49;7.63;;;2.05;;
10244;SDS011;5167;52.164;10.530;2023-04-25T08:56:16;11.43;;;2.80;;
10244;SDS011;5167;52.164;10.530;2023-04-25T08:58:50;16.42;;;3.03;;
10244;SDS011;5167;52.164;10.530;2023-04-25T09:01:15;10.82;;;2.90;;
10244;SDS011;5167;52.164;10.530;2023-04-25T09:03:42;12.23;;;2.60;;
10244;SDS011;5167;52.164;10.530;2023-04-25T09:06:09;5.78;;;3.08;;
10244;SDS011;5167;52.164;10.530;2023-04-25T09:08:36;11.70;;;2.67;;
10244;SDS011;5167;52.164;10.530;2023-04-25T09:11:02;4.97;;;2.25;;
10244;SDS011;5167;52.164;10.530;2023-04-25T09:13:28;6.00;;;2.38;;
10244;SDS011;5167;52.164;10.530;2023-04-25T09:15:54;6.10;;;1.95;;
10244;SDS011;5167;52.164;10.530;2023-04-25T09:18:25;6.90;;;2.00;;
10244;SDS011;5167;52.164;10.530;2023-04-25T09:20:56;7.38;;;2.60;;
10244;SDS011;5167;52.164;10.530;2023-04-25T09:23:30;6.28;;;2.05;;
10244;SDS011;5167;52.164;10.530;2023-04-25T09:26:03;9.55;;;2.08;;
10244;SDS011;5167;52.164;10.530;2023-04-25T09:28:28;9.45;;;2.28;;
10244;SDS011;5167;52.164;10.530;2023-04-25T09:30:55;9.63;;;2.97;;
10244;SDS011;5167;52.164;10.530;2023-04-25T09:33:26;5.82;;;2.00;;
10244;SDS011;5167;52.164;10.530;2023-04-25T09:35:54;6.07;;;1.90;;
10244;SDS011;5167;52.164;10.530;2023-04-25T09:38:40;4.47;;;1.52;;
10244;SDS011;5167;52.164;10.530;2023-04-25T09:41:07;13.60;;;2.47;;
10244;SDS011;5167;52.164;10.530;2023-04-25T09:43:33;5.90;;;2.53;;
10244;SDS011;5167;52.164;10.530;2023-04-25T09:45:58;5.30;;;1.77;;
10244;SDS011;5167;52.164;10.530;2023-04-25T09:48:25;6.63;;;1.92;;
10244;SDS011;5167;52.164;10.530;2023-04-25T09:51:08;6.57;;;1.50;;
10244;SDS011;5167;52.164;10.530;2023-04-25T09:53:36;4.90;;;2.00;;
10244;SDS011;5167;52.164;10.530;2023-04-25T09:56:06;5.88;;;2.05;;
10244;SDS011;5167;52.164;10.530;2023-04-25T09:58:34;6.80;;;2.17;;
10244;SDS011;5167;52.164;10.530;2023-04-25T10:01:02;6.88;;;2.15;;
10244;SDS011;5167;52.164;10.530;2023-04-25T10:03:33;9.13;;;2.35;;
10244;SDS011;5167;52.164;10.530;2023-04-25T10:06:00;11.00;;;2.20;;
10244;SDS011;5167;52.164;10.530;2023-04-25T10:08:31;4.68;;;1.98;;
10244;SDS011;5167;52.164;10.530;2023-04-25T10:11:01;8.73;;;2.17;;
10244;SDS011;5167;52.164;10.530;2023-04-25T10:13:33;7.80;;;2.22;;
10244;SDS011;5167;52.164;10.530;2023-04-25T10:16:00;11.18;;;2.13;;
10244;SDS011;5167;52.164;10.530;2023-04-25T10:18:29;4.80;;;1.60;;
10244;SDS011;5167;52.164;10.530;2023-04-25T10:21:01;8.60;;;2.05;;
10244;SDS011;5167;52.164;10.530;2023-04-25T10:23:30;10.00;;;2.30;;
10244;SDS011;5167;52.164;10.530;2023-04-25T10:25:56;5.68;;;2.05;;
10244;SDS011;5167;52.164;10.530;2023-04-25T10:28:22;8.80;;;2.10;;
10244;SDS011;5167;52.164;10.530;2023-04-25T10:30:57;2.10;;;1.50;;
10244;SDS011;5167;52.164;10.530;2023-04-25T10:33:32;9.30;;;2.20;;
10244;SDS011;5167;52.164;10.530;2023-04-25T10:36:07;7.68;;;2.10;;
10244;SDS011;5167;52.164;10.530;2023-04-25T10:38:37;7.47;;;2.10;;
10244;SDS011;5167;52.164;10.530;2023-04-25T10:41:04;3.45;;;1.88;;
10244;SDS011;5167;52.164;10.530;2023-04-25T10:43:37;5.80;;;1.58;;
10244;SDS011;5167;52.164;10.530;2023-04-25T10:46:23;6.00;;;1.70;;
10244;SDS011;5167;52.164;10.530;2023-04-25T10:48:56;6.72;;;1.65;;
10244;SDS011;5167;52.164;10.530;2023-04-25T10:51:24;3.20;;;1.60;;
10244;SDS011;5167;52.164;10.530;2023-04-25T10:54:02;3.78;;;1.55;;
10244;SDS011;5167;52.164;10.530;2023-04-25T10:56:38;3.85;;;1.45;;
10244;SDS011;5167;52.164;10.530;2023-04-25T10:59:09;4.72;;;1.20;;
10244;SDS011;5167;52.164;10.530;2023-04-25T11:01:40;5.32;;;1.63;;
10244;SDS011;5167;52.164;10.530;2023-04-25T11:04:29;4.82;;;1.85;;
10244;SDS011;5167;52.164;10.530;2023-04-25T11:06:59;2.42;;;1.25;;
10244;SDS011;5167;52.164;10.530;2023-04-25T11:09:39;6.93;;;2.35;;
10244;SDS011;5167;52.164;10.530;2023-04-25T11:12:07;2.67;;;1.30;;
10244;SDS011;5167;52.164;10.530;2023-04-25T11:14:33;5.57;;;1.67;;
10244;SDS011;5167;52.164;10.530;2023-04-25T11:16:59;4.28;;;1.50;;
10244;SDS011;5167;52.164;10.530;2023-04-25T11:19:26;8.05;;;1.98;;
10244;SDS011;5167;52.164;10.530;2023-04-25T11:21:58;4.93;;;1.38;;
10244;SDS011;5167;52.164;10.530;2023-04-25T11:24:32;5.63;;;2.45;;
10244;SDS011;5167;52.164;10.530;2023-04-25T11:26:59;3.47;;;1.58;;
10244;SDS011;5167;52.164;10.530;2023-04-25T11:29:27;4.38;;;1.40;;
10244;SDS011;5167;52.164;10.530;2023-04-25T11:31:54;3.92;;;1.55;;
10244;SDS011;5167;52.164;10.530;2023-04-25T11:34:22;2.47;;;1.73;;
10244;SDS011;5167;52.164;10.530;2023-04-25T11:36:49;3.28;;;1.80;;
10244;SDS011;5167;52.164;10.530;2023-04-25T11:39:17;2.85;;;1.80;;
10244;SDS011;5167;52.164;10.530;2023-04-25T11:41:43;3.83;;;1.48;;
10244;SDS011;5167;52.164;10.530;2023-04-25T11:44:09;7.90;;;1.50;;
10244;SDS011;5167;52.164;10.530;2023-04-25T11:46:35;4.13;;;1.50;;
10244;SDS011;5167;52.164;10.530;2023-04-25T11:49:00;5.05;;;1.75;;
10244;SDS011;5167;52.164;10.530;2023-04-25T11:51:26;3.97;;;1.67;;
10244;SDS011;5167;52.164;10.530;2023-04-25T11:53:52;6.35;;;1.83;;
10244;SDS011;5167;52.164;10.530;2023-04-25T11:56:20;2.60;;;1.80;;
10244;SDS011;5167;52.164;10.530;2023-04-25T11:58:59;4.03;;;1.70;;
10244;SDS011;5167;52.164;10.530;2023-04-25T12:01:30;3.25;;;1.70;;
10244;SDS011;5167;52.164;10.530;2023-04-25T12:04:12;5.45;;;1.60;;
10244;SDS011;5167;52.164;10.530;2023-04-25T12:06:52;6.10;;;1.30;;
10244;SDS011;5167;52.164;10.530;2023-04-25T12:09:20;2.88;;;1.55;;
10244;SDS011;5167;52.164;10.530;2023-04-25T12:11:53;5.32;;;1.50;;
10244;SDS011;5167;52.164;10.530;2023-04-25T12:14:26;5.55;;;2.13;;
10244;SDS011;5167;52.164;10.530;2023-04-25T12:16:56;3.67;;;1.58;;
10244;SDS011;5167;52.164;10.530;2023-04-25T12:19:24;5.32;;;1.42;;
10244;SDS011;5167;52.164;10.530;2023-04-25T12:21:51;5.38;;;1.77;;
10244;SDS011;5167;52.164;10.530;2023-04-25T12:24:17;1.52;;;1.30;;
10244;SDS011;5167;52.164;10.530;2023-04-25T12:26:53;5.38;;;1.95;;
10244;SDS011;5167;52.164;10.530;2023-04-25T12:29:23;12.05;;;1.92;;
10244;SDS011;5167;52.164;10.530;2023-04-25T12:31:50;6.82;;;2.28;;
10244;SDS011;5167;52.164;10.530;2023-04-25T12:34:17;2.67;;;1.40;;
10244;SDS011;5167;52.164;10.530;2023-04-25T12:36:43;3.88;;;1.38;;
10244;SDS011;5167;52.164;10.530;2023-04-25T12:39:22;6.78;;;2.78;;
10244;SDS011;5167;52.164;10.530;2023-04-25T12:41:49;3.75;;;1.80;;
10244;SDS011;5167;52.164;10.530;2023-04-25T12:44:19;4.60;;;2.20;;
10244;SDS011;5167;52.164;10.530;2023-04-25T12:46:45;4.80;;;1.40;;
10244;SDS011;5167;52.164;10.530;2023-04-25T12:49:10;2.53;;;1.73;;
10244;SDS011;5167;52.164;10.530;2023-04-25T12:51:36;4.22;;;2.20;;
10244;SDS011;5167;52.164;10.530;2023-04-25T12:54:02;7.90;;;2.10;;
10244;SDS011;5167;52.164;10.530;2023-04-25T12:56:29;2.25;;;1.55;;
10244;SDS011;5167;52.164;10.530;2023-04-25T12:58:56;7.22;;;1.95;;
10244;SDS011;5167;52.164;10.530;2023-04-25T13:01:22;4.22;;;1.60;;
10244;SDS011;5167;52.164;10.530;2023-04-25T13:03:48;8.30;;;1.95;;
10244;SDS011;5167;52.164;10.530;2023-04-25T13:06:14;3.22;;;1.80;;
10244;SDS011;5167;52.164;10.530;2023-04-25T13:08:41;6.20;;;2.42;;
10244;SDS011;5167;52.164;10.530;2023-04-25T13:11:07;9.95;;;2.22;;
10244;SDS011;5167;52.164;10.530;2023-04-25T13:13:33;6.65;;;2.13;;
10244;SDS011;5167;52.164;10.530;2023-04-25T13:16:00;6.35;;;2.15;;
10244;SDS011;5167;52.164;10.530;2023-04-25T13:18:29;4.78;;;1.60;;
10244;SDS011;5167;52.164;10.530;2023-04-25T13:20:56;7.05;;;2.08;;
10244;SDS011;5167;52.164;10.530;2023-04-25T13:23:22;6.88;;;2.00;;
10244;SDS011;5167;52.164;10.530;2023-04-25T13:25:50;8.35;;;2.30;;
10244;SDS011;5167;52.164;10.530;2023-04-25T13:28:15;9.50;;;2.40;;
10244;SDS011;5167;52.164;10.530;2023-04-25T13:30:41;19.58;;;2.80;;
10244;SDS011;5167;52.164;10.530;2023-04-25T13:33:07;4.28;;;1.58;;
10244;SDS011;5167;52.164;10.530;2023-04-25T13:35:33;21.17;;;2.90;;
10244;SDS011;5167;52.164;10.530;2023-04-25T13:37:59;7.97;;;1.70;;
10244;SDS011;5167;52.164;10.530;2023-04-25T13:40:25;5.75;;;1.92;;
10244;SDS011;5167;52.164;10.530;2023-04-25T13:42:51;15.18;;;2.08;;
10244;SDS011;5167;52.164;10.530;2023-04-25T13:45:17;5.53;;;2.42;;
10244;SDS011;5167;52.164;10.530;2023-04-25T13:47:43;5.47;;;1.85;;
10244;SDS011;5167;52.164;10.530;2023-04-25T13:50:08;1.88;;;1.38;;
10244;SDS011;5167;52.164;10.530;2023-04-25T13:52:35;10.23;;;2.03;;
10244;SDS011;5167;52.164;10.530;2023-04-25T13:55:01;4.60;;;1.38;;
10244;SDS011;5167;52.164;10.530;2023-04-25T13:57:28;3.15;;;1.58;;
10244;SDS011;5167;52.164;10.530;2023-04-25T13:59:55;4.65;;;1.42;;
10244;SDS011;5167;52.164;10.530;2023-04-25T14:02:21;2.92;;;1.50;;
10244;SDS011;5167;52.164;10.530;2023-04-25T14:04:46;2.85;;;1.40;;
10244;SDS011;5167;52.164;10.530;2023-04-25T14:07:12;4.10;;;1.30;;
10244;SDS011;5167;52.164;10.530;2023-04-25T14:09:40;2.88;;;1.10;;
10244;SDS011;5167;52.164;10.530;2023-04-25T14:12:06;6.18;;;1.00;;
10244;SDS011;5167;52.164;10.530;2023-04-25T14:14:32;2.15;;;0.95;;
10244;SDS011;5167;52.164;10.530;2023-04-25T14:16:57;5.22;;;1.00;;
10244;SDS011;5167;52.164;10.530;2023-04-25T14:19:23;1.80;;;1.10;;
10244;SDS011;5167;52.164;10.530;2023-04-25T14:21:49;1.75;;;0.93;;
10244;SDS011;5167;52.164;10.530;2023-04-25T14:24:15;4.10;;;1.20;;
10244;SDS011;5167;52.164;10.530;2023-04-25T14:26:40;1.20;;;0.70;;
10244;SDS011;5167;52.164;10.530;2023-04-25T14:29:07;1.27;;;1.00;;
10244;SDS011;5167;52.164;10.530;2023-04-25T14:31:33;1.33;;;1.00;;
10244;SDS011;5167;52.164;10.530;2023-04-25T14:34:00;3.03;;;1.20;;
10244;SDS011;5167;52.164;10.530;2023-04-25T14:36:27;4.47;;;1.00;;
10244;SDS011;5167;52.164;10.530;2023-04-25T14:38:53;4.18;;;0.88;;